• Join FlightAware (Why Join?)
  • Login
  • US Flag 
01:36AM EDT


 

Airport Tracker/Info


-or-


 

Live Flight TrackerFlight Track Log ✈ SWA2975 ✈ 23-Jun-2013 ✈ KSLC - KMDW

Flight Track Log - Related Links

Times and Time Zones

All times are in EDT time to prevent confusion due to time zone crossing. See the SWA2975 flight status page for this flight to view local times or setup timezone preferences in your user account.

Time Position Orientation Groundspeed Altitude Reporting Facility
EDT Latitude Longitude Course Direction KTS MPH feet Rate Location/Type
06:32PM 40.8090 -111.9770 353° North 168 193 5,200  Level FlightAware
06:32PM 40.8330 -111.9810 353° North 202 232 5,800 1,260 Climbing FlightAware
06:32PM 40.8430 -111.9820 356° North 211 243 6,000 1,200 Climbing FlightAware
06:33PM 40.8730 -111.9870 353° North 243 280 6,600 1,560 Climbing FlightAware
06:33PM 40.9060 -111.9910 355° North 262 302 7,500 2,100 Climbing FlightAware
06:34PM 40.9430 -111.9960 354° North 276 318 8,600 2,400 Climbing FlightAware
06:34PM 40.9620 -111.9970 358° North 278 320 9,300 2,220 Climbing FlightAware
06:35PM 40.9970 -111.9790 21° North 295 339 10,300 2,460 Climbing FlightAware
06:35PM 41.0080 -111.9620 49° Northeast 289 333 11,000 2,520 Climbing FlightAware
06:35PM 41.0170 -111.9140 76° East 291 335 12,000 1,560 Climbing FlightAware
06:36PM 41.0190 -111.8320 88° East 341 392 12,900 1,200 Climbing FlightAware
06:37PM 41.0220 -111.7360 88° East 381 438 13,800 2,160 Climbing FlightAware
06:37PM 41.0300 -111.6190 85° East 389 448 16,200 1,620 Climbing FlightAware
06:38PM 41.0360 -111.5400 84° East 389 448 16,200  Level FlightAware
06:39PM 41.0440 -111.4390 84° East 389 448 16,200  Level FlightAware
06:40PM 41.0500 -111.3670 84° East 389 448 16,200  Level FlightAware
06:40PM 41.0580 -111.2660 84° East 389 448 16,200  Level FlightAware
06:41PM 41.0640 -111.1930 84° East 389 448 16,200 4,680 Level FlightAware
06:42PM 41.1200 -110.9003 84° East 447 514 25,000 2,460 Climbing Salt Lake Center
06:48PM 41.3460 -110.0080 84° East 468 539 32,700 1,380 Climbing FlightAware
06:48PM 41.3750 -109.8930 71° East 468 539 33,500 1,080 Climbing FlightAware
06:49PM 41.4040 -109.7790 71° East 468 539 34,200 1,020 Climbing FlightAware
06:50PM 41.4290 -109.6750 72° East 469 540 34,900 540 Climbing FlightAware
06:50PM 41.4610 -109.5470 72° East 468 539 35,000 300 Climbing FlightAware
06:51PM 41.4890 -109.4340 72° East 473 544 35,400 720 Climbing FlightAware
06:52PM 41.5160 -109.3210 72° East 474 545 36,000 840 Climbing FlightAware
06:52PM 41.5450 -109.2040 72° East 474 545 36,600 660 Climbing FlightAware
06:53PM 41.5730 -109.0870 72° East 475 547 37,000 240 Climbing FlightAware
06:54PM 41.5940 -108.9680 77° East 472 543 37,000  Level FlightAware
06:55PM 41.6040 -108.8430 84° East 470 541 37,000  Level FlightAware
06:55PM 41.6130 -108.7270 84° East 469 540 37,000  Level FlightAware
06:56PM 41.6220 -108.6110 84° East 469 540 37,000  Level FlightAware
06:57PM 41.6320 -108.4780 84° East 469 540 37,000  Level FlightAware
06:57PM 41.6390 -108.3720 85° East 469 540 37,000  Level FlightAware
06:58PM 41.6480 -108.2500 84° East 470 541 37,000  Level FlightAware
06:59PM 41.6570 -108.1290 84° East 471 542 37,000  Level FlightAware
06:59PM 41.6660 -108.0080 84° East 472 543 37,000  Level FlightAware
07:00PM 41.6740 -107.8870 85° East 474 545 37,000  Level FlightAware
07:01PM 41.6830 -107.7600 85° East 476 548 37,000  Level FlightAware
07:02PM 41.6920 -107.6280 85° East 479 551 37,000  Level FlightAware
07:02PM 41.7000 -107.5060 85° East 480 552 37,000  Level FlightAware
07:03PM 41.7080 -107.3860 85° East 479 551 37,000  Level FlightAware
07:04PM 41.7160 -107.2570 85° East 480 552 37,000  Level FlightAware
07:04PM 41.7230 -107.1390 85° East 481 554 37,000  Level FlightAware
07:05PM 41.7300 -107.0340 85° East 481 554 37,000  Level FlightAware
07:06PM 41.7360 -106.9430 85° East 481 554 37,000  Level FlightAware
07:06PM 41.7440 -106.8200 85° East 481 554 37,000  Level FlightAware
07:07PM 41.7530 -106.6550 86° East 483 556 37,000  Level FlightAware
07:08PM 41.7600 -106.5510 85° East 483 556 37,000  Level FlightAware
07:09PM 41.7680 -106.3850 86° East 484 557 37,000  Level FlightAware
07:09PM 41.7750 -106.2710 85° East 483 556 37,000  Level FlightAware
07:10PM 41.7820 -106.1350 86° East 483 556 37,000  Level FlightAware
07:10PM 41.7870 -106.0470 86° East 484 557 37,000  Level FlightAware
07:11PM 41.7930 -105.9250 86° East 485 558 37,000  Level FlightAware
07:12PM 41.7990 -105.8050 86° East 485 558 37,000  Level FlightAware
07:12PM 41.8050 -105.6910 86° East 487 560 37,000  Level FlightAware
07:13PM 41.8120 -105.5490 86° East 489 563 37,000  Level FlightAware
07:14PM 41.8180 -105.4290 86° East 488 562 37,000  Level FlightAware
07:15PM 41.8240 -105.2910 87° East 485 558 37,000  Level FlightAware
07:15PM 41.8290 -105.1830 86° East 479 551 37,000  Level FlightAware
07:16PM 41.8350 -105.0450 87° East 481 554 37,000  Level FlightAware
07:17PM 41.8410 -104.9210 86° East 483 556 37,000  Level FlightAware
07:18PM 41.8480 -104.7600 87° East 482 555 37,000  Level FlightAware
07:18PM 41.8530 -104.6280 87° East 483 556 37,000  Level FlightAware
07:19PM 41.8580 -104.5050 87° East 482 555 37,000  Level FlightAware
07:20PM 41.8630 -104.3750 87° East 481 554 37,000  Level FlightAware
07:20PM 41.8670 -104.2750 87° East 481 554 37,000  Level FlightAware
07:21PM 41.8730 -104.1270 87° East 480 552 37,000  Level FlightAware
07:22PM 41.8770 -104.0090 87° East 481 554 37,000  Level FlightAware
07:23PM 41.8820 -103.8700 87° East 484 557 37,000  Level FlightAware
07:23PM 41.8860 -103.7490 87° East 488 562 37,000  Level FlightAware
07:24PM 41.8900 -103.6160 88° East 491 565 37,000  Level FlightAware
07:25PM 41.8930 -103.5000 88° East 493 567 37,000  Level FlightAware
07:25PM 41.8850 -103.3700 95° East 487 560 37,000  Level FlightAware
07:26PM 41.8760 -103.2530 96° East 486 559 37,000  Level FlightAware
07:27PM 41.8650 -103.1110 96° East 487 560 37,000  Level FlightAware
07:27PM 41.8570 -103.0150 96° East 487 560 37,000  Level FlightAware
07:28PM 41.8430 -102.8490 96° East 487 560 37,000  Level FlightAware
07:29PM 41.8300 -102.6970 96° East 487 560 37,000  Level FlightAware
07:30PM 41.8220 -102.5980 96° East 487 560 37,000  Level FlightAware
07:30PM 41.8150 -102.5010 95° East 487 560 37,000  Level FlightAware
07:31PM 41.7980 -102.3310 98° East 483 556 37,000  Level FlightAware
07:32PM 41.7870 -102.2010 96° East 483 556 37,000  Level FlightAware
07:33PM 41.7780 -102.0950 96° East 483 556 37,000  Level FlightAware
07:33PM 41.7690 -101.9790 96° East 483 556 37,000  Level FlightAware
07:34PM 41.7610 -101.8850 96° East 483 556 37,000  Level FlightAware
07:35PM 41.7520 -101.7630 96° East 483 556 37,000  Level FlightAware
07:35PM 41.7450 -101.6720 96° East 483 556 37,000  Level FlightAware
07:36PM 41.7350 -101.5510 96° East 483 556 37,000  Level FlightAware
07:37PM 41.7280 -101.4570 96° East 483 556 37,000  Level FlightAware
07:38PM 41.7160 -101.3030 96° East 483 556 37,000  Level FlightAware
07:38PM 41.7090 -101.2120 96° East 483 556 37,000  Level FlightAware
07:39PM 41.6990 -101.0880 96° East 483 556 37,000  Level FlightAware
07:40PM 41.6920 -100.9970 96° East 483 556 37,000  Level FlightAware
07:41PM 41.6820 -100.8750 96° East 483 556 37,000  Level FlightAware
07:41PM 41.6750 -100.7820 96° East 483 556 37,000  Level FlightAware
07:42PM 41.6125 -100.4058 96° East 485 558 37,000  Level Minneapolis Center
07:43PM 41.5925 -100.2278 98° East 485 558 37,000  Level Minneapolis Center
07:44PM 41.5744 -100.0492 98° East 485 558 37,000  Level Minneapolis Center
07:45PM 41.5539 -99.8714 99° East 484 557 37,000  Level Minneapolis Center
07:46PM 41.5342 -99.6919 98° East 487 560 37,000  Level Minneapolis Center
07:47PM 41.5147 -99.5128 98° East 488 562 37,000  Level Minneapolis Center
07:48PM 41.4939 -99.3356 99° East 484 557 37,000  Level Minneapolis Center
07:54PM 41.3800 -98.2150 99° East 481 554 37,000  Level FlightAware
07:55PM 41.3840 -98.1100 87° East 481 554 37,000  Level FlightAware
07:56PM 41.3880 -97.9800 88° East 480 552 37,000  Level FlightAware
07:56PM 41.3910 -97.8510 88° East 481 554 37,000  Level FlightAware
07:57PM 41.3950 -97.7210 88° East 481 554 37,000  Level FlightAware
07:58PM 41.3980 -97.6220 88° East 480 552 37,000  Level FlightAware
07:58PM 41.4020 -97.4840 88° East 479 551 37,000  Level FlightAware
07:59PM 41.4050 -97.3490 88° East 477 549 37,000  Level FlightAware
08:00PM 41.4080 -97.2250 88° East 477 549 37,000  Level FlightAware
08:01PM 41.4110 -97.1080 88° East 477 549 37,000  Level FlightAware
08:01PM 41.4130 -96.9910 89° East 477 549 37,000  Level FlightAware
08:02PM 41.4160 -96.8630 88° East 478 550 37,000  Level FlightAware
08:03PM 41.4190 -96.7380 88° East 478 550 37,000  Level FlightAware
08:03PM 41.4210 -96.6320 89° East 478 550 37,000  Level FlightAware
08:04PM 41.4230 -96.4880 89° East 479 551 37,000  Level FlightAware
08:05PM 41.4250 -96.3710 89° East 479 551 37,000  Level FlightAware
08:06PM 41.4270 -96.2450 89° East 479 551 37,000  Level FlightAware
08:06PM 41.4290 -96.1150 89° East 479 551 37,000  Level FlightAware
08:07PM 41.4310 -96.0050 89° East 479 551 37,000  Level FlightAware
08:08PM 41.4320 -95.8700 89° East 480 552 37,000  Level FlightAware
08:08PM 41.4340 -95.7500 89° East 480 552 37,000  Level FlightAware
08:09PM 41.4350 -95.6320 89° East 475 547 37,000  Level FlightAware
08:10PM 41.4360 -95.5100 89° East 474 545 37,000  Level FlightAware
08:11PM 41.4370 -95.3500 89° East 474 545 37,000  Level FlightAware
08:11PM 41.4380 -95.2200 89° East 473 544 37,000  Level FlightAware
08:12PM 41.4390 -95.1010 89° East 471 542 37,000  Level FlightAware
08:13PM 41.4400 -94.9780 89° East 469 540 37,000  Level FlightAware
08:14PM 41.4410 -94.7900 90° East 469 540 37,000  Level FlightAware
08:15PM 41.4420 -94.6800 89° East 468 539 37,000  Level FlightAware
08:15PM 41.4400 -94.5000 91° East 470 541 37,000  Level FlightAware
08:16PM 41.4360 -94.3840 93° East 473 544 37,000  Level FlightAware
08:17PM 41.4310 -94.2590 93° East 474 545 37,000  Level FlightAware
08:18PM 41.4260 -94.1390 93° East 474 545 37,000  Level FlightAware
08:18PM 41.4210 -94.0020 93° East 473 544 37,000  Level FlightAware
08:19PM 41.4160 -93.8860 93° East 470 541 37,000  Level FlightAware
08:20PM 41.4120 -93.7750 93° East 466 536 37,000  Level FlightAware
08:20PM 41.4060 -93.6520 94° East 465 535 37,000  Level FlightAware
08:21PM 41.4010 -93.5170 93° East 464 534 37,000  Level FlightAware
08:22PM 41.3960 -93.4060 93° East 466 536 37,000 -240 Level FlightAware
08:23PM 41.3900 -93.2780 94° East 467 537 36,700 -660 Descending FlightAware
08:23PM 41.3840 -93.1630 94° East 467 537 36,100 -960 Descending FlightAware
08:24PM 41.3790 -93.0530 93° East 473 544 35,500 -1,020 Descending FlightAware
08:25PM 41.3740 -92.9390 93° East 472 543 34,800 -1,080 Descending FlightAware
08:25PM 41.3670 -92.8010 94° East 468 539 34,000 -1,080 Descending FlightAware
08:26PM 41.3600 -92.6750 94° East 463 533 33,200 -780 Descending FlightAware
08:27PM 41.3550 -92.5780 94° East 459 528 33,000 -300 Descending FlightAware
08:27PM 41.3480 -92.4340 94° East 473 544 32,800 -540 Descending FlightAware
08:28PM 41.3410 -92.3150 94° East 480 552 32,200 -960 Descending FlightAware
08:29PM 41.3340 -92.1830 94° East 481 554 31,500 -960 Descending FlightAware
08:30PM 41.3280 -92.0770 94° East 483 556 30,900 -1,020 Descending FlightAware
08:30PM 41.3200 -91.9420 94° East 479 551 30,100 -1,080 Descending FlightAware
08:31PM 41.3130 -91.8230 94° East 478 550 29,400 -840 Descending FlightAware
08:32PM 41.3060 -91.7020 94° East 482 555 29,000 -300 Descending FlightAware
08:32PM 41.2990 -91.5850 95° East 487 560 29,000  Level FlightAware
08:33PM 41.2900 -91.4440 95° East 485 558 29,000  Level FlightAware
08:34PM 41.2830 -91.3270 95° East 485 558 29,000  Level FlightAware
08:34PM 41.2750 -91.2060 95° East 485 558 29,000  Level FlightAware
08:35PM 41.2670 -91.0750 95° East 485 558 29,000 -840 Level FlightAware
08:36PM 41.2600 -90.9700 95° East 478 550 27,800 -2,220 Descending FlightAware
08:37PM 41.2500 -90.8280 95° East 467 537 25,900 -2,460 Descending FlightAware
08:37PM 41.2420 -90.7110 95° East 454 522 24,400 -2,100 Descending FlightAware
08:38PM 41.2340 -90.5910 95° East 440 506 23,000 -1,200 Descending FlightAware
08:38PM 41.2290 -90.5200 95° East 439 505 23,000  Level FlightAware
08:39PM 41.2210 -90.3970 95° East 442 509 23,000  Level FlightAware
08:40PM 41.2130 -90.2910 96° East 442 509 23,000  Level FlightAware
08:40PM 41.2050 -90.1880 96° East 442 509 23,000 -720 Level FlightAware
08:41PM 41.1960 -90.0580 95° East 435 501 22,000 -1,740 Descending FlightAware
08:42PM 41.1880 -89.9530 96° East 425 489 20,500 -2,220 Descending FlightAware
08:43PM 41.1790 -89.8460 96° East 415 478 18,900 -2,400 Descending FlightAware
08:43PM 41.1720 -89.7440 95° East 408 470 17,300 -2,460 Descending FlightAware
08:44PM 41.1630 -89.6310 96° East 402 463 15,500 -1,740 Descending FlightAware
08:45PM 41.1660 -89.4990 88° East 368 423 14,400 -1,140 Descending FlightAware
08:46PM 41.1720 -89.4050 85° East 372 428 13,700 -1,020 Descending FlightAware
08:46PM 41.1780 -89.3170 85° East 376 433 13,100 -960 Descending FlightAware
08:47PM 41.1840 -89.2230 85° East 374 430 12,400 -960 Descending FlightAware
08:48PM 41.1910 -89.1180 85° East 369 425 11,700 -1,080 Descending FlightAware
08:49PM 41.2310 -88.9780 69° East 349 402 10,500 -960 Descending FlightAware
08:50PM 41.2640 -88.9100 57° Northeast 322 371 10,000 -480 Descending FlightAware
08:50PM 41.2860 -88.8650 57° Northeast 297 342 10,000  Level FlightAware
08:51PM 41.3160 -88.7940 61° Northeast 292 336 10,000  Level FlightAware
08:51PM 41.3290 -88.7420 72° East 291 335 10,000  Level FlightAware
08:52PM 41.3420 -88.6900 72° East 303 349 10,000  Level FlightAware
08:53PM 41.3640 -88.6060 71° East 342 394 10,000  Level FlightAware
08:53PM 41.3790 -88.5450 72° East 343 395 10,000  Level FlightAware
08:54PM 41.4010 -88.4590 71° East 340 391 10,000  Level FlightAware
08:54PM 41.4180 -88.3910 72° East 339 390 10,000  Level FlightAware
08:55PM 41.4290 -88.3480 71° East 319 367 10,000 -180 Level FlightAware
08:55PM 41.4360 -88.3180 73° East 308 354 9,900 -840 Descending FlightAware
08:55PM 41.4490 -88.2690 70° East 304 350 9,400 -1,080 Descending FlightAware
08:56PM 41.4620 -88.2170 72° East 303 349 8,900 -1,140 Descending FlightAware
08:56PM 41.4710 -88.1810 72° East 303 349 8,500 -1,080 Descending FlightAware
08:57PM 41.4840 -88.1270 72° East 300 345 8,000 -1,020 Descending FlightAware
08:57PM 41.4890 -88.1050 73° East 298 343 7,800 -960 Descending FlightAware
08:57PM 41.4980 -88.0720 70° East 298 343 7,500 -1,020 Descending FlightAware
08:58PM 41.5050 -88.0440 72° East 295 339 7,200 -960 Descending FlightAware
08:58PM 41.5170 -87.9940 72° East 291 335 6,800 -960 Descending FlightAware
08:59PM 41.5290 -87.9450 72° East 289 333 6,300 -1,020 Descending FlightAware
08:59PM 41.5370 -87.9140 71° East 290 334 6,000 -1,020 Descending FlightAware
08:59PM 41.5440 -87.8940 65° Northeast 290 334 5,800 -1,020 Descending FlightAware
08:59PM 41.5610 -87.8730 43° Northeast 286 329 5,500 -1,080 Descending FlightAware
09:00PM 41.5890 -87.8440 38° Northeast 285 328 5,000 -1,020 Descending FlightAware
09:00PM 41.6170 -87.8140 39° Northeast 279 321 4,600 -780 Descending FlightAware
09:01PM 41.6380 -87.7920 38° Northeast 267 307 4,400 -300 Descending FlightAware
09:01PM 41.6630 -87.7660 38° Northeast 239 275 4,400  Level FlightAware
09:02PM 41.6850 -87.7430 38° Northeast 208 239 4,400 -540 Level FlightAware
09:02PM 41.7060 -87.7200 39° Northeast 200 230 3,900 -1,140 Descending FlightAware
09:03PM 41.7280 -87.6980 37° Northeast 201 231 3,300 -1,200 Descending FlightAware
09:03PM 41.7480 -87.6790 35° Northeast 202 232 2,800 -1,080 Descending FlightAware
09:03PM 41.7570 -87.6700 37° Northeast 203 234 2,600 -840 Descending FlightAware
09:03PM 41.7730 -87.6600 25° Northeast 200 230 2,400 -540 Descending FlightAware
09:04PM 41.7890 -87.6570 North 190 219 2,300 -480 Descending FlightAware
09:04PM 41.8050 -87.6590 355° North 183 211 2,100 -540 Descending FlightAware
09:04PM 41.8170 -87.6650 340° North 167 192 2,000 -480 Descending FlightAware
09:05PM 41.8220 -87.6710 318° Northwest 158 182 1,900 -600 Descending FlightAware
09:05PM 41.8250 -87.6820 290° West 147 169 1,800 -720 Descending FlightAware
09:05PM 41.8200 -87.7070 255° West 140 161 1,400 -780 Descending FlightAware
09:06PM 41.8130 -87.7170 227° Southwest 138 159 1,200 -660 Descending FlightAware
09:06PM 41.8040 -87.7270 220° Southwest 134 154 1,000 -300 Descending FlightAware
09:06PM 41.7940 -87.7410 226° Southwest 134 154 1,000  Level FlightAware